createdAt,value
2023-09-15T00:01:00.986Z,12.67
2023-09-15T00:03:45.717Z,12.66
2023-09-15T00:06:25.405Z,12.60
2023-09-15T00:09:05.935Z,12.60
2023-09-15T00:11:50.069Z,12.59
2023-09-15T00:14:29.723Z,12.53
2023-09-15T00:17:10.482Z,12.46
2023-09-15T00:19:54.976Z,12.40
2023-09-15T00:22:34.281Z,12.30
2023-09-15T00:25:14.043Z,12.23
2023-09-15T00:27:54.057Z,12.19
2023-09-15T00:30:36.511Z,12.17
2023-09-15T00:33:15.905Z,12.15
2023-09-15T00:36:00.370Z,12.13
2023-09-15T00:38:39.698Z,12.13
2023-09-15T00:41:19.175Z,12.10
2023-09-15T00:43:59.115Z,12.14
2023-09-15T00:46:38.685Z,12.14
2023-09-15T00:49:18.380Z,12.11
2023-09-15T00:52:03.294Z,12.13
2023-09-15T00:54:44.104Z,12.10
2023-09-15T00:57:24.484Z,12.07
2023-09-15T01:00:05.005Z,12.03
2023-09-15T01:02:44.989Z,12.06
2023-09-15T01:05:27.860Z,12.10
2023-09-15T01:08:13.008Z,12.12
2023-09-15T01:10:52.462Z,12.09
2023-09-15T01:13:31.908Z,12.05
2023-09-15T01:16:19.936Z,12.03
2023-09-15T01:19:10.375Z,12.07
2023-09-15T01:22:22.787Z,12.07
2023-09-15T01:25:38.592Z,12.01
2023-09-15T01:28:50.212Z,12.00
2023-09-15T01:31:35.510Z,12.03
2023-09-15T01:34:15.732Z,12.01
2023-09-15T01:36:56.377Z,11.94
2023-09-15T01:39:35.739Z,11.87
2023-09-15T01:42:15.227Z,11.88
2023-09-15T01:44:54.786Z,11.95
2023-09-15T01:47:41.842Z,12.00
2023-09-15T01:50:23.022Z,12.04
2023-09-15T01:53:08.636Z,12.09
2023-09-15T01:55:51.439Z,12.11
2023-09-15T01:58:30.940Z,12.05
2023-09-15T02:01:10.408Z,12.02
2023-09-15T02:03:54.888Z,11.98
2023-09-15T02:06:34.322Z,11.96
2023-09-15T02:09:14.228Z,11.96
2023-09-15T02:11:53.784Z,11.93
2023-09-15T02:14:34.619Z,11.89
2023-09-15T02:17:17.495Z,11.86
2023-09-15T02:20:01.926Z,11.86
2023-09-15T02:22:41.373Z,11.83
2023-09-15T02:25:20.778Z,11.78
2023-09-15T02:28:00.222Z,11.77
2023-09-15T02:30:39.634Z,11.79
2023-09-15T02:33:19.048Z,11.84
2023-09-15T02:36:03.827Z,11.88
2023-09-15T02:38:43.187Z,12.03
2023-09-15T02:41:22.533Z,12.03
2023-09-15T02:44:01.861Z,11.97
2023-09-15T02:46:41.356Z,11.94
2023-09-15T02:49:20.705Z,11.92
2023-09-15T02:52:07.386Z,11.90
2023-09-15T02:54:46.691Z,11.91
2023-09-15T02:57:26.056Z,11.92
2023-09-15T03:00:06.701Z,11.90
2023-09-15T03:02:47.301Z,11.90
2023-09-15T03:05:28.001Z,11.92
2023-09-15T03:08:13.197Z,11.99
2023-09-15T03:10:52.544Z,11.99
2023-09-15T03:13:31.827Z,11.98
2023-09-15T03:16:19.241Z,11.95
2023-09-15T03:18:58.817Z,11.93
2023-09-15T03:21:38.204Z,11.94
2023-09-15T03:24:22.655Z,11.93
2023-09-15T03:27:02.008Z,11.94
2023-09-15T03:29:41.314Z,11.98
2023-09-15T03:32:20.699Z,11.96
2023-09-15T03:35:00.035Z,11.94
2023-09-15T03:37:40.443Z,11.91
2023-09-15T03:40:26.852Z,11.85
2023-09-15T03:43:06.504Z,11.82
2023-09-15T03:45:45.856Z,11.87
2023-09-15T03:48:25.281Z,11.88
2023-09-15T03:51:04.657Z,11.92
2023-09-15T03:53:44.245Z,11.88
2023-09-15T03:56:28.690Z,11.88
2023-09-15T03:59:09.145Z,11.93
2023-09-15T04:01:49.858Z,11.98
2023-09-15T04:04:29.200Z,11.95
2023-09-15T04:07:08.637Z,11.91
2023-09-15T04:09:48.163Z,11.91
2023-09-15T04:12:32.596Z,11.94
2023-09-15T04:15:13.590Z,11.98
2023-09-15T04:17:53.251Z,11.95
2023-09-15T04:20:45.353Z,11.91
2023-09-15T04:23:26.274Z,11.97
2023-09-15T04:26:06.435Z,11.99
2023-09-15T04:28:50.822Z,11.87
2023-09-15T04:31:30.189Z,11.79
2023-09-15T04:34:09.670Z,11.70
2023-09-15T04:36:49.126Z,11.65
2023-09-15T04:39:30.088Z,11.63
2023-09-15T04:42:09.513Z,11.63
2023-09-15T04:44:54.029Z,11.62
2023-09-15T04:47:43.063Z,11.67
2023-09-15T04:50:22.464Z,11.64
2023-09-15T04:53:04.931Z,11.68
2023-09-15T04:55:44.720Z,11.70
2023-09-15T04:58:24.128Z,11.76
2023-09-15T05:01:12.624Z,11.73
2023-09-15T05:03:52.081Z,11.79
2023-09-15T05:06:31.540Z,11.76
2023-09-15T05:09:12.553Z,11.71
2023-09-15T05:11:54.900Z,11.69
2023-09-15T05:14:35.135Z,11.68
2023-09-15T05:17:19.550Z,11.67
2023-09-15T05:19:59.508Z,11.64
2023-09-15T05:22:38.916Z,11.65
2023-09-15T05:25:18.304Z,11.68
2023-09-15T05:27:57.674Z,11.66
2023-09-15T05:30:40.375Z,11.62
2023-09-15T05:33:24.774Z,11.56
2023-09-15T05:36:04.748Z,11.53
2023-09-15T05:38:44.056Z,11.57
2023-09-15T05:41:23.532Z,11.69
2023-09-15T05:44:02.853Z,11.72
2023-09-15T05:46:42.393Z,11.72
2023-09-15T05:49:29.515Z,11.77
2023-09-15T05:52:10.342Z,11.87
2023-09-15T05:54:49.750Z,11.94
2023-09-15T05:57:29.093Z,12.00
2023-09-15T06:00:08.433Z,12.03
2023-09-15T06:02:47.834Z,12.09
2023-09-15T06:05:32.323Z,12.18
2023-09-15T06:08:12.079Z,12.23
2023-09-15T06:10:51.563Z,12.28
2023-09-15T06:13:30.978Z,12.32
2023-09-15T06:16:11.128Z,12.37
2023-09-15T06:18:51.380Z,12.36
2023-09-15T06:21:35.831Z,12.32
2023-09-15T06:24:15.288Z,12.28
2023-09-15T06:26:57.308Z,12.37
2023-09-15T06:29:36.689Z,12.35
2023-09-15T06:32:16.048Z,12.34
2023-09-15T06:34:55.448Z,12.34
2023-09-15T06:37:39.871Z,12.35
2023-09-15T06:40:19.842Z,12.29
2023-09-15T06:42:59.319Z,12.22
2023-09-15T06:45:38.810Z,12.25
2023-09-15T06:48:18.163Z,12.20
2023-09-15T06:50:57.491Z,12.20
2023-09-15T06:53:41.889Z,12.19
2023-09-15T06:56:21.320Z,12.28
2023-09-15T06:59:00.659Z,12.34
2023-09-15T07:01:41.732Z,12.39
2023-09-15T07:04:21.262Z,12.38
2023-09-15T07:07:00.776Z,12.36
2023-09-15T07:09:45.328Z,12.40
2023-09-15T07:12:24.722Z,12.41
2023-09-15T07:15:06.414Z,12.44
2023-09-15T07:17:45.905Z,12.51
2023-09-15T07:20:25.358Z,12.58
2023-09-15T07:23:05.500Z,12.63
2023-09-15T07:25:52.869Z,12.67
2023-09-15T07:28:32.444Z,12.81
2023-09-15T07:31:12.493Z,12.88
2023-09-15T07:33:51.947Z,12.91
2023-09-15T07:36:31.502Z,12.96
2023-09-15T07:39:11.781Z,13.09
2023-09-15T07:41:56.188Z,13.25
2023-09-15T07:44:35.534Z,13.40
2023-09-15T07:47:17.028Z,13.57
2023-09-15T07:49:56.373Z,13.69
2023-09-15T07:52:35.981Z,13.79
2023-09-15T07:55:15.836Z,13.82
2023-09-15T07:58:00.349Z,13.91
2023-09-15T08:00:40.306Z,14.05
2023-09-15T08:03:19.664Z,14.20
2023-09-15T08:06:01.699Z,14.38
2023-09-15T08:08:42.044Z,14.64
2023-09-15T08:11:21.574Z,14.82
2023-09-15T08:14:06.020Z,14.99
2023-09-15T08:16:45.577Z,15.14
2023-09-15T08:19:25.003Z,15.28
2023-09-15T08:22:04.472Z,15.40
2023-09-15T08:24:44.227Z,15.52
2023-09-15T08:27:23.810Z,15.59
2023-09-15T08:30:09.136Z,15.69
2023-09-15T08:32:48.829Z,15.85
2023-09-15T08:35:28.339Z,15.98
2023-09-15T08:38:10.085Z,16.08
2023-09-15T08:40:57.440Z,16.14
2023-09-15T08:43:37.251Z,16.28
2023-09-15T08:46:23.530Z,16.39
2023-09-15T08:49:07.731Z,16.57
2023-09-15T08:51:48.228Z,16.68
2023-09-15T08:54:28.101Z,16.79
2023-09-15T08:57:08.073Z,16.95
2023-09-15T08:59:48.851Z,17.06
2023-09-15T09:02:35.032Z,17.14
2023-09-15T09:05:14.932Z,17.27
2023-09-15T09:07:58.012Z,17.45
2023-09-15T09:10:37.537Z,17.62
2023-09-15T09:13:29.770Z,17.78
2023-09-15T09:16:13.199Z,17.92
2023-09-15T09:19:09.521Z,18.09
2023-09-15T09:21:49.022Z,18.27
2023-09-15T09:24:31.982Z,18.48
2023-09-15T09:27:17.075Z,18.65
2023-09-15T09:29:56.452Z,18.78
2023-09-15T09:32:35.938Z,18.83
2023-09-15T09:35:21.112Z,18.94
2023-09-15T09:38:02.165Z,19.17
2023-09-15T09:40:41.641Z,19.41
2023-09-15T09:43:21.868Z,19.63
2023-09-15T09:46:01.318Z,19.79
2023-09-15T09:48:42.649Z,19.92
2023-09-15T09:51:27.357Z,20.14
2023-09-15T09:54:06.985Z,20.30
2023-09-15T09:56:46.345Z,20.43
2023-09-15T09:59:25.718Z,20.57
2023-09-15T10:02:05.097Z,20.73
2023-09-15T10:04:44.437Z,20.83
2023-09-15T10:07:29.249Z,20.95
2023-09-15T10:10:09.479Z,21.07
2023-09-15T10:12:49.476Z,21.16
2023-09-15T10:15:29.769Z,21.31
2023-09-15T10:18:10.256Z,21.52
2023-09-15T10:20:52.136Z,21.71
2023-09-15T10:23:38.841Z,22.11
2023-09-15T10:26:18.337Z,22.66
2023-09-15T10:28:59.027Z,23.01
2023-09-15T10:31:38.994Z,23.31
2023-09-15T10:34:18.602Z,23.71
2023-09-15T10:36:58.855Z,24.07
2023-09-15T10:39:50.313Z,24.43
2023-09-15T10:42:29.705Z,24.60
2023-09-15T10:45:18.067Z,24.83
2023-09-15T10:48:05.684Z,25.18
2023-09-15T10:50:46.663Z,25.45
2023-09-15T10:53:27.568Z,25.67
2023-09-15T10:56:12.090Z,25.89
2023-09-15T10:58:52.773Z,26.08
2023-09-15T11:01:32.129Z,26.42
2023-09-15T11:04:12.824Z,26.87
2023-09-15T11:06:53.966Z,27.13
2023-09-15T11:09:33.356Z,27.32
2023-09-15T11:12:21.153Z,27.51
2023-09-15T11:15:07.229Z,27.89
2023-09-15T11:17:46.646Z,28.22
2023-09-15T11:20:26.289Z,28.34
2023-09-15T11:23:05.670Z,28.52
2023-09-15T11:25:45.037Z,28.68
2023-09-15T11:28:30.442Z,28.90
2023-09-15T11:31:14.455Z,29.13
2023-09-15T11:33:54.473Z,29.34
2023-09-15T11:36:37.724Z,29.68
2023-09-15T11:39:18.514Z,29.85
2023-09-15T11:41:59.149Z,30.08
2023-09-15T11:44:45.984Z,30.24
2023-09-15T11:47:26.035Z,30.41
2023-09-15T11:50:07.942Z,30.55
2023-09-15T11:52:48.375Z,30.56
2023-09-15T11:55:29.506Z,30.64
2023-09-15T11:58:09.077Z,31.00
2023-09-15T12:00:54.243Z,31.13
2023-09-15T12:03:34.236Z,31.43
2023-09-15T12:06:14.740Z,31.53
2023-09-15T12:08:55.725Z,31.68
2023-09-15T12:11:35.785Z,31.92
2023-09-15T12:14:15.196Z,32.06
2023-09-15T12:16:59.671Z,32.10
2023-09-15T12:19:43.417Z,32.43
2023-09-15T12:22:22.835Z,32.48
2023-09-15T12:25:02.340Z,32.58
2023-09-15T12:27:41.695Z,32.75
2023-09-15T12:30:23.655Z,32.99
2023-09-15T12:33:08.282Z,33.13
2023-09-15T12:35:47.693Z,33.19
2023-09-15T12:38:27.399Z,33.26
2023-09-15T12:41:06.770Z,33.11
2023-09-15T12:43:46.630Z,33.00
2023-09-15T12:46:26.438Z,33.21
2023-09-15T12:49:10.958Z,33.53
2023-09-15T12:51:50.289Z,33.71
2023-09-15T12:54:29.742Z,34.11
2023-09-15T12:57:09.702Z,34.19
2023-09-15T12:59:49.389Z,34.27
2023-09-15T13:02:30.118Z,34.35
2023-09-15T13:05:15.369Z,34.36
2023-09-15T13:07:54.781Z,34.65
2023-09-15T13:10:36.452Z,34.69
2023-09-15T13:13:17.202Z,34.77
2023-09-15T13:15:56.769Z,34.45
2023-09-15T13:18:36.138Z,34.46
2023-09-15T13:21:20.755Z,34.50
2023-09-15T13:24:00.091Z,34.68
2023-09-15T13:26:39.620Z,34.49
2023-09-15T13:29:18.946Z,34.90
2023-09-15T13:31:58.335Z,35.25
2023-09-15T13:34:37.678Z,35.41
2023-09-15T13:37:22.092Z,35.59
2023-09-15T13:40:01.583Z,35.65
2023-09-15T13:42:42.469Z,35.73
2023-09-15T13:45:21.940Z,35.47
2023-09-15T13:48:01.356Z,35.24
2023-09-15T13:50:40.709Z,35.26
2023-09-15T13:53:25.307Z,35.37
2023-09-15T13:56:05.208Z,35.39
2023-09-15T13:58:46.807Z,35.32
2023-09-15T14:01:27.562Z,35.29
2023-09-15T14:04:06.989Z,35.27
2023-09-15T14:06:46.428Z,35.40
2023-09-15T14:09:30.878Z,35.37
2023-09-15T14:12:11.196Z,35.48
2023-09-15T14:14:50.543Z,35.44
2023-09-15T14:17:30.393Z,35.53
2023-09-15T14:20:09.878Z,35.72
2023-09-15T14:22:49.321Z,35.68
2023-09-15T14:25:34.212Z,35.66
2023-09-15T14:28:14.213Z,35.60
2023-09-15T14:30:59.778Z,35.72
2023-09-15T14:33:39.106Z,35.67
2023-09-15T14:36:18.865Z,34.62
2023-09-15T14:38:59.091Z,34.68
2023-09-15T14:41:44.272Z,35.56
2023-09-15T14:44:28.290Z,36.10
2023-09-15T14:47:07.597Z,35.96
2023-09-15T14:49:46.956Z,35.55
2023-09-15T14:52:27.229Z,35.17
2023-09-15T14:55:06.505Z,35.09
2023-09-15T14:57:50.949Z,35.11
2023-09-15T15:00:31.958Z,35.25
2023-09-15T15:03:11.958Z,35.29
2023-09-15T15:05:51.624Z,35.60
2023-09-15T15:08:31.015Z,35.81
2023-09-15T15:11:11.354Z,35.74
2023-09-15T15:13:55.785Z,35.58
2023-09-15T15:16:35.364Z,35.48
2023-09-15T15:19:14.911Z,35.44
2023-09-15T15:21:54.509Z,35.49
2023-09-15T15:24:33.900Z,35.52
2023-09-15T15:27:14.258Z,35.50
2023-09-15T15:29:58.935Z,35.44
2023-09-15T15:32:39.357Z,35.39
2023-09-15T15:35:18.711Z,35.33
2023-09-15T15:37:58.906Z,35.37
2023-09-15T15:40:40.210Z,35.41
2023-09-15T15:43:19.872Z,35.20
2023-09-15T15:46:08.321Z,34.92
2023-09-15T15:48:48.222Z,34.86
2023-09-15T15:51:29.667Z,34.80
2023-09-15T15:54:09.041Z,34.73
2023-09-15T15:56:49.016Z,34.69
2023-09-15T15:59:28.360Z,34.56
2023-09-15T16:02:15.436Z,34.41
2023-09-15T16:04:54.746Z,34.13
2023-09-15T16:07:34.120Z,34.03
2023-09-15T16:10:14.812Z,33.86
2023-09-15T16:12:54.182Z,31.96
2023-09-15T16:15:34.008Z,30.81
2023-09-15T16:21:01.931Z,31.32
2023-09-15T16:23:41.300Z,31.58
2023-09-15T16:26:20.708Z,31.55
2023-09-15T16:29:00.065Z,31.22
2023-09-15T16:31:39.597Z,30.82
2023-09-15T16:34:24.087Z,30.67
2023-09-15T16:37:03.354Z,30.74
2023-09-15T16:39:42.872Z,30.77
2023-09-15T16:42:22.268Z,30.75
2023-09-15T16:45:04.801Z,30.64
2023-09-15T16:47:44.157Z,30.49
2023-09-15T16:50:29.324Z,30.40
2023-09-15T16:53:08.611Z,30.29
2023-09-15T16:55:48.529Z,30.00
2023-09-15T16:58:27.904Z,29.24
2023-09-15T17:01:08.378Z,28.45
2023-09-15T17:03:47.930Z,27.36
2023-09-15T17:06:33.410Z,26.26
2023-09-15T17:09:12.847Z,25.90
2023-09-15T17:11:52.514Z,25.76
2023-09-15T17:14:31.794Z,25.67
2023-09-15T17:17:11.421Z,25.55
2023-09-15T17:19:51.099Z,25.31
2023-09-15T17:22:35.531Z,25.09
2023-09-15T17:25:16.345Z,24.94
2023-09-15T17:27:55.844Z,24.84
2023-09-15T17:30:35.247Z,24.68
2023-09-15T17:33:14.879Z,24.40
2023-09-15T17:35:56.348Z,24.27
2023-09-15T17:38:42.914Z,24.15
2023-09-15T17:41:22.644Z,24.05
2023-09-15T17:44:02.213Z,23.97
2023-09-15T17:46:41.636Z,23.78
2023-09-15T17:49:20.960Z,23.64
2023-09-15T17:52:00.473Z,23.53
2023-09-15T17:54:44.967Z,23.42
2023-09-15T17:57:25.078Z,23.34
2023-09-15T18:00:05.998Z,23.24
2023-09-15T18:02:45.422Z,23.09
2023-09-15T18:05:25.194Z,22.90
2023-09-15T18:08:05.231Z,22.77
2023-09-15T18:10:49.910Z,22.66
2023-09-15T18:13:29.710Z,22.60
2023-09-15T18:16:09.680Z,22.53
2023-09-15T18:18:49.245Z,22.45
2023-09-15T18:21:28.789Z,22.29
2023-09-15T18:24:08.415Z,22.04
2023-09-15T18:26:52.757Z,21.87
2023-09-15T18:29:32.131Z,21.78
2023-09-15T18:32:11.946Z,21.71
2023-09-15T18:34:51.280Z,21.65
2023-09-15T18:37:30.753Z,21.48
2023-09-15T18:40:13.153Z,21.41
2023-09-15T18:42:57.904Z,21.35
2023-09-15T18:45:37.945Z,21.28
2023-09-15T18:48:17.609Z,21.24
2023-09-15T18:50:56.970Z,21.17
2023-09-15T18:53:36.341Z,21.06
2023-09-15T18:56:15.701Z,20.93
2023-09-15T18:59:00.183Z,20.84
2023-09-15T19:01:39.569Z,20.74
2023-09-15T19:04:19.001Z,20.63
2023-09-15T19:06:58.746Z,20.57
2023-09-15T19:09:38.123Z,20.54
2023-09-15T19:12:17.774Z,20.51
2023-09-15T19:15:02.167Z,20.46
2023-09-15T19:17:41.720Z,20.41
2023-09-15T19:20:21.257Z,20.36
2023-09-15T19:23:02.975Z,20.35
2023-09-15T19:25:42.466Z,20.33
2023-09-15T19:28:21.979Z,20.26
2023-09-15T19:31:07.878Z,20.24
2023-09-15T19:33:47.391Z,20.14
2023-09-15T19:36:26.903Z,20.09
2023-09-15T19:39:06.895Z,20.02
2023-09-15T19:41:46.355Z,19.93
2023-09-15T19:44:25.663Z,19.85
2023-09-15T19:47:10.554Z,19.80
2023-09-15T19:49:49.800Z,19.76
2023-09-15T19:52:31.887Z,19.69
2023-09-15T19:55:12.406Z,19.66
2023-09-15T19:57:57.379Z,19.57
2023-09-15T20:00:37.913Z,19.49
2023-09-15T20:03:22.808Z,19.46
2023-09-15T20:06:04.757Z,19.43
2023-09-15T20:08:44.085Z,19.40
2023-09-15T20:11:23.416Z,19.33
2023-09-15T20:14:03.137Z,19.09
2023-09-15T20:16:42.529Z,18.97
2023-09-15T20:19:27.825Z,18.92
2023-09-15T20:22:07.100Z,18.89
2023-09-15T20:24:46.730Z,18.79
2023-09-15T20:27:26.077Z,18.75
2023-09-15T20:30:05.420Z,18.68
2023-09-15T20:32:44.819Z,18.59
2023-09-15T20:35:29.233Z,18.53
2023-09-15T20:38:09.402Z,18.48
2023-09-15T20:40:49.231Z,18.44
2023-09-15T20:43:28.647Z,18.41
2023-09-15T20:46:08.016Z,18.37
2023-09-15T20:48:47.504Z,18.31
2023-09-15T20:51:32.104Z,18.26
2023-09-15T20:54:11.962Z,18.22
2023-09-15T20:56:51.287Z,18.22
2023-09-15T20:59:30.768Z,18.22
2023-09-15T21:02:10.090Z,18.20
2023-09-15T21:04:50.163Z,18.19
2023-09-15T21:07:34.556Z,18.11
2023-09-15T21:10:15.045Z,18.06
2023-09-15T21:12:55.712Z,18.02
2023-09-15T21:15:35.076Z,17.95
2023-09-15T21:18:14.830Z,17.88
2023-09-15T21:20:54.516Z,17.84
2023-09-15T21:23:39.051Z,17.80
2023-09-15T21:26:18.541Z,17.77
2023-09-15T21:28:57.858Z,17.71
2023-09-15T21:31:37.674Z,17.67
2023-09-15T21:34:17.039Z,17.62
2023-09-15T21:36:56.379Z,17.56
2023-09-15T21:39:41.560Z,17.53
2023-09-15T21:42:21.016Z,17.54
2023-09-15T21:45:00.420Z,17.60
2023-09-15T21:47:39.798Z,17.54
2023-09-15T21:50:19.121Z,17.52
2023-09-15T21:52:58.665Z,17.53
2023-09-15T21:55:43.606Z,17.47
2023-09-15T21:58:23.542Z,17.40
2023-09-15T22:01:02.908Z,17.32
2023-09-15T22:03:42.388Z,17.31
2023-09-15T22:06:22.205Z,17.25
2023-09-15T22:09:01.676Z,17.20
2023-09-15T22:11:46.195Z,17.13
2023-09-15T22:14:26.164Z,17.01
2023-09-15T22:17:05.889Z,16.96
2023-09-15T22:19:45.323Z,16.92
2023-09-15T22:22:24.656Z,16.92
2023-09-15T22:25:04.027Z,16.93
2023-09-15T22:27:49.885Z,16.89
2023-09-15T22:30:29.815Z,16.87
2023-09-15T22:33:09.590Z,16.84
2023-09-15T22:35:49.521Z,16.81
2023-09-15T22:38:28.953Z,16.78
2023-09-15T22:41:17.418Z,16.78
2023-09-15T22:44:06.176Z,16.78
2023-09-15T22:46:46.228Z,16.74
2023-09-15T22:49:25.845Z,16.71
2023-09-15T22:52:06.809Z,16.71
2023-09-15T22:54:46.465Z,16.70
2023-09-15T22:57:25.956Z,16.68
2023-09-15T23:00:15.071Z,16.64
2023-09-15T23:02:56.437Z,16.64
2023-09-15T23:05:35.868Z,16.59
2023-09-15T23:08:15.255Z,16.57
2023-09-15T23:10:54.603Z,16.55
2023-09-15T23:13:33.972Z,16.56
2023-09-15T23:16:18.484Z,16.55
2023-09-15T23:18:58.274Z,16.50
2023-09-15T23:21:37.655Z,16.43
2023-09-15T23:24:17.197Z,16.39
2023-09-15T23:26:56.465Z,16.30
2023-09-15T23:29:35.888Z,16.15
2023-09-15T23:32:20.304Z,16.08
2023-09-15T23:34:59.764Z,16.02
2023-09-15T23:37:40.151Z,15.98
2023-09-15T23:40:19.792Z,15.96
2023-09-15T23:42:59.196Z,15.97
2023-09-15T23:45:38.661Z,16.05
2023-09-15T23:48:23.505Z,16.00
2023-09-15T23:51:02.878Z,15.92
2023-09-15T23:53:42.582Z,15.89
2023-09-15T23:56:21.937Z,15.85
2023-09-15T23:59:01.429Z,15.80
